METAR Data
IDs: Format: Raw Decoded Include TAF

Data at: 2226 UTC 02 Aug 2021

KRRL 022215Z AUTO 23003KT 10SM CLR 25/13 A3009 RMK AO2 T02450130 TSNO